Time;durP1;ratioP1;P1;durP2;ratioP2;P2;SDS_P1;SDS_P2;PMS_P1;PMS_P2;Temp;Humidity;BMP_temperature;BMP_pressure;BME280_temperature;BME280_humidity;BME280_pressure;Samples;Min_cycle;Max_cycle;Signal;HPM_P1;HPM_P2
2020/12/09 00:00:07;;;;;;;13.40;12.10;;;;;20.80;99609.00;;;;2096474;28;20687;-48
2020/12/09 00:01:07;;;;;;;14.68;13.27;;;;;20.80;99607.00;;;;2095627;28;20231;-48
2020/12/09 00:02:08;;;;;;;12.90;11.70;;;;;20.80;99619.00;;;;2096097;28;20672;-49
2020/12/09 00:03:08;;;;;;;13.90;12.70;;;;;20.70;99616.00;;;;2096340;28;20572;-47
2020/12/09 00:04:08;;;;;;;14.47;13.07;;;;;20.80;99620.00;;;;2096150;28;20631;-49
2020/12/09 00:05:10;;;;;;;13.70;12.40;;;;;20.80;99621.00;;;;2091539;28;20923;-48
2020/12/09 00:06:10;;;;;;;13.80;12.43;;;;;20.80;99623.00;;;;2092122;28;21070;-49
2020/12/09 00:07:11;;;;;;;12.57;11.47;;;;;20.80;99629.00;;;;2091435;28;20304;-46
2020/12/09 00:08:11;;;;;;;14.00;12.70;;;;;20.80;99623.00;;;;2087785;28;20226;-49
2020/12/09 00:09:13;;;;;;;13.00;11.80;;;;;20.80;99619.00;;;;2087691;28;20257;-47
2020/12/09 00:10:13;;;;;;;12.20;11.10;;;;;20.80;99621.00;;;;2087831;28;20215;-49
2020/12/09 00:11:14;;;;;;;12.97;11.70;;;;;20.80;99625.00;;;;2087815;28;20284;-48
2020/12/09 00:12:15;;;;;;;13.27;11.97;;;;;20.70;99620.00;;;;2087556;28;20219;-49
2020/12/09 00:13:15;;;;;;;13.15;11.95;;;;;20.70;99620.00;;;;2087744;28;20580;-49
2020/12/09 00:14:16;;;;;;;13.10;11.90;;;;;20.70;99625.00;;;;2086505;28;20212;-49
2020/12/09 00:15:16;;;;;;;12.27;11.07;;;;;20.70;99623.00;;;;2087274;28;20297;-49
2020/12/09 00:16:17;;;;;;;11.93;10.83;;;;;20.70;99626.00;;;;2087587;28;20249;-46
2020/12/09 00:17:17;;;;;;;12.30;11.20;;;;;20.70;99626.00;;;;2087976;28;20245;-49
2020/12/09 00:18:18;;;;;;;12.90;11.80;;;;;20.70;99624.00;;;;2087621;28;20540;-49
2020/12/09 00:19:18;;;;;;;12.73;11.57;;;;;20.70;99626.00;;;;2087861;28;20629;-49
2020/12/09 00:20:19;;;;;;;12.20;11.10;;;;;20.70;99624.00;;;;2086999;28;20237;-48
2020/12/09 00:21:19;;;;;;;12.30;11.20;;;;;20.70;99626.00;;;;2087947;28;20223;-49
2020/12/09 00:22:20;;;;;;;12.10;11.00;;;;;20.70;99626.00;;;;2093501;28;20210;-48
2020/12/09 00:23:20;;;;;;;12.10;11.00;;;;;20.70;99625.00;;;;2095902;28;20806;-49
2020/12/09 00:24:20;;;;;;;12.60;11.40;;;;;20.70;99620.00;;;;2095766;28;20222;-49
2020/12/09 00:25:21;;;;;;;12.40;11.30;;;;;20.60;99630.00;;;;2095632;28;20227;-48
2020/12/09 00:26:22;;;;;;;12.30;11.20;;;;;20.70;99627.00;;;;2095952;28;20222;-49
2020/12/09 00:27:23;;;;;;;12.63;11.48;;;;;20.70;99619.00;;;;2096171;28;20253;-49
2020/12/09 00:28:23;;;;;;;13.13;10.52;;;;;20.70;99621.00;;;;2089557;28;20323;-48
2020/12/09 00:29:23;;;;;;;11.73;10.73;;;;;20.70;99621.00;;;;2092768;28;20214;-49
2020/12/09 00:30:24;;;;;;;11.83;10.73;;;;;20.70;99619.00;;;;2094765;28;20377;-52
2020/12/09 00:31:26;;;;;;;11.50;10.40;;;;;20.70;99620.00;;;;2089970;28;20212;-52
2020/12/09 00:32:27;;;;;;;12.07;10.98;;;;;20.70;99624.00;;;;2087940;28;20224;-49
2020/12/09 00:33:27;;;;;;;11.27;10.17;;;;;20.60;99632.00;;;;2087895;28;20210;-50
2020/12/09 00:34:27;;;;;;;11.87;10.67;;;;;20.60;99622.00;;;;2091751;28;20683;-46
2020/12/09 00:35:28;;;;;;;11.63;10.63;;;;;20.60;99621.00;;;;2091738;28;20610;-48
2020/12/09 00:36:28;;;;;;;10.97;9.97;;;;;20.60;99620.00;;;;2092111;28;20670;-49
2020/12/09 00:37:28;;;;;;;12.00;10.77;;;;;20.60;99623.00;;;;2089127;28;20203;-49
2020/12/09 00:38:29;;;;;;;11.53;10.53;;;;;20.60;99617.00;;;;2087936;28;20208;-49
2020/12/09 00:39:29;;;;;;;12.10;11.00;;;;;20.60;99620.00;;;;2087949;28;20206;-49
2020/12/09 00:40:29;;;;;;;11.20;10.30;;;;;20.60;99609.00;;;;2087745;28;20207;-49
2020/12/09 00:41:30;;;;;;;11.50;10.33;;;;;20.50;99609.00;;;;2087831;28;20289;-48
2020/12/09 00:42:31;;;;;;;11.30;10.20;;;;;20.50;99611.00;;;;2087891;28;20597;-49
2020/12/09 00:43:31;;;;;;;11.68;10.57;;;;;20.50;99623.00;;;;2087906;28;20226;-46
2020/12/09 00:44:32;;;;;;;12.10;11.00;;;;;20.60;99619.00;;;;2087256;28;20208;-48
2020/12/09 00:45:32;;;;;;;10.47;9.57;;;;;20.50;99616.00;;;;2087815;28;20260;-49
2020/12/09 00:46:32;;;;;;;11.57;10.53;;;;;20.50;99619.00;;;;2087725;28;20250;-49
2020/12/09 00:47:33;;;;;;;11.60;10.20;;;;;20.50;99617.00;;;;2093937;28;20209;-49
2020/12/09 00:48:33;;;;;;;9.77;8.90;;;;;20.50;99621.00;;;;2095099;28;20218;-49
2020/12/09 00:49:53;;;;;;;11.17;10.17;;;;;20.50;99622.00;;;;2089591;28;20730;-48
2020/12/09 00:50:54;;;;;;;10.00;9.20;;;;;20.40;99623.00;;;;2088932;28;20446;-47
2020/12/09 00:51:54;;;;;;;10.17;9.10;;;;;20.50;99619.00;;;;2095843;28;20208;-49
2020/12/09 00:52:54;;;;;;;10.43;9.53;;;;;20.50;99626.00;;;;2095880;28;20241;-52
2020/12/09 00:53:55;;;;;;;10.80;9.90;;;;;20.40;99620.00;;;;2096551;28;20267;-49
2020/12/09 00:54:55;;;;;;;10.67;9.77;;;;;20.40;99625.00;;;;2096129;28;20268;-49
2020/12/09 00:55:55;;;;;;;10.23;9.37;;;;;20.50;99626.00;;;;2093723;28;20721;-49
2020/12/09 00:56:56;;;;;;;10.17;9.17;;;;;20.50;99619.00;;;;2087171;28;20630;-49
2020/12/09 00:57:56;;;;;;;11.80;10.70;;;;;20.40;99617.00;;;;2087549;28;20670;-47
2020/12/09 00:58:57;;;;;;;11.47;10.47;;;;;20.40;99621.00;;;;2086872;28;20630;-53
2020/12/09 00:59:57;;;;;;;10.37;9.47;;;;;20.40;99613.00;;;;2087663;28;20221;-52
2020/12/09 01:00:57;;;;;;;10.50;9.60;;;;;20.40;99623.00;;;;2087712;28;20804;-51
2020/12/09 01:01:58;;;;;;;11.27;10.07;;;;;20.40;99619.00;;;;2093494;28;20235;-51
2020/12/09 01:02:58;;;;;;;10.47;9.57;;;;;20.40;99616.00;;;;2087579;28;20212;-51
2020/12/09 01:03:58;;;;;;;10.00;9.10;;;;;20.40;99623.00;;;;2087316;28;20246;-47
2020/12/09 01:04:59;;;;;;;10.53;9.63;;;;;20.40;99613.00;;;;2091633;28;20221;-49
2020/12/09 01:05:59;;;;;;;9.70;8.90;;;;;20.40;99619.00;;;;2091564;28;21301;-49
2020/12/09 01:07:00;;;;;;;10.43;9.53;;;;;20.40;99615.00;;;;2091840;28;20227;-49
2020/12/09 01:08:00;;;;;;;10.03;9.23;;;;;20.30;99616.00;;;;2087352;28;20700;-49
2020/12/09 01:09:04;;;;;;;10.10;9.20;;;;;20.30;99621.00;;;;2087550;28;20269;-48
2020/12/09 01:10:05;;;;;;;9.68;8.88;;;;;20.40;99626.00;;;;2087690;28;20209;-49
2020/12/09 01:11:05;;;;;;;9.77;8.90;;;;;20.30;99627.00;;;;2087735;28;20226;-49
2020/12/09 01:12:06;;;;;;;9.90;9.00;;;;;20.30;99628.00;;;;2087608;28;20624;-49
2020/12/09 01:13:06;;;;;;;9.20;8.30;;;;;20.30;99622.00;;;;2087407;28;20221;-49
2020/12/09 01:14:06;;;;;;;9.77;8.83;;;;;20.30;99624.00;;;;2086888;28;20306;-49
2020/12/09 01:15:07;;;;;;;9.80;9.00;;;;;20.30;99625.00;;;;2086293;28;20202;-48
2020/12/09 01:16:07;;;;;;;9.80;9.00;;;;;20.30;99629.00;;;;2090612;28;20268;-49
2020/12/09 01:17:08;;;;;;;10.53;9.60;;;;;20.30;99630.00;;;;2094844;28;21133;-49
2020/12/09 01:18:08;;;;;;;10.17;9.30;;;;;20.30;99625.00;;;;2095349;28;20669;-49
2020/12/09 01:19:08;;;;;;;9.00;8.20;;;;;20.30;99624.00;;;;2091687;28;20233;-49
2020/12/09 01:20:09;;;;;;;9.67;8.87;;;;;20.30;99632.00;;;;2087240;28;20536;-47
2020/12/09 01:21:09;;;;;;;10.40;9.40;;;;;20.30;99633.00;;;;2086570;28;20579;-49
2020/12/09 01:22:09;;;;;;;9.47;8.67;;;;;20.30;99633.00;;;;2086778;28;20223;-49
2020/12/09 01:23:10;;;;;;;9.23;8.43;;;;;20.30;99630.00;;;;2087078;28;20272;-49
2020/12/09 01:24:10;;;;;;;9.13;8.33;;;;;20.30;99635.00;;;;2091717;28;20245;-49
2020/12/09 01:25:11;;;;;;;8.77;8.07;;;;;20.30;99643.00;;;;2094060;28;20231;-47
2020/12/09 01:26:11;;;;;;;9.53;8.63;;;;;20.30;99632.00;;;;2090768;28;20207;-46
2020/12/09 01:27:11;;;;;;;8.13;7.43;;;;;20.30;99632.00;;;;2091487;28;20213;-48
2020/12/09 01:28:12;;;;;;;9.67;8.87;;;;;20.30;99626.00;;;;2095267;28;20268;-48
2020/12/09 01:29:12;;;;;;;9.00;8.20;;;;;20.30;99636.00;;;;2095586;28;20205;-49
2020/12/09 01:30:12;;;;;;;9.20;8.50;;;;;20.30;99636.00;;;;2091110;28;20307;-49
2020/12/09 01:31:13;;;;;;;8.97;8.23;;;;;20.30;99634.00;;;;2090972;28;20210;-49
2020/12/09 01:32:13;;;;;;;9.93;9.13;;;;;20.30;99635.00;;;;2095031;28;20223;-49
2020/12/09 01:33:13;;;;;;;8.53;7.80;;;;;20.30;99642.00;;;;2095708;28;20199;-47
2020/12/09 01:34:14;;;;;;;9.43;8.63;;;;;20.20;99647.00;;;;2095437;28;20230;-49
2020/12/09 01:35:14;;;;;;;9.67;8.87;;;;;20.30;99655.00;;;;2091821;28;20209;-49
2020/12/09 01:36:22;;;;;;;9.60;8.70;;;;;20.30;99659.00;;;;2095291;28;20446;-49
2020/12/09 01:37:22;;;;;;;9.05;8.35;;;;;20.20;99654.00;;;;2089543;28;20203;-48
2020/12/09 01:38:22;;;;;;;8.43;7.83;;;;;20.20;99654.00;;;;2093238;28;20224;-48
2020/12/09 01:39:23;;;;;;;8.80;8.10;;;;;20.20;99654.00;;;;2095177;28;20207;-49
2020/12/09 01:40:23;;;;;;;8.63;7.93;;;;;20.20;99654.00;;;;2089538;28;20224;-49
2020/12/09 01:41:24;;;;;;;9.43;8.63;;;;;20.20;99654.00;;;;2093532;28;20214;-49
2020/12/09 01:42:24;;;;;;;8.23;7.63;;;;;20.20;99656.00;;;;2095696;28;20221;-49
2020/12/09 01:43:24;;;;;;;8.30;7.60;;;;;20.20;99660.00;;;;2095688;28;20234;-49
2020/12/09 01:44:25;;;;;;;8.90;8.20;;;;;20.20;99663.00;;;;2089707;28;20217;-49
2020/12/09 01:45:25;;;;;;;8.20;7.60;;;;;20.20;99672.00;;;;2086583;28;20212;-49
2020/12/09 01:46:27;;;;;;;7.90;7.20;;;;;20.20;99668.00;;;;2093602;28;20218;-49
2020/12/09 01:47:28;;;;;;;8.15;7.55;;;;;20.20;99664.00;;;;2095277;28;20219;-49
2020/12/09 01:48:28;;;;;;;9.53;8.63;;;;;20.20;99663.00;;;;2091056;28;20818;-46
2020/12/09 01:49:28;;;;;;;8.10;7.50;;;;;20.20;99662.00;;;;2094230;28;20207;-48
2020/12/09 01:50:29;;;;;;;8.50;7.87;;;;;20.20;99674.00;;;;2086572;28;20264;-49
2020/12/09 01:51:29;;;;;;;7.90;7.30;;;;;20.20;99666.00;;;;2086426;28;20211;-49
2020/12/09 01:52:29;;;;;;;8.07;7.37;;;;;20.20;99669.00;;;;2087140;28;20305;-49
2020/12/09 01:53:30;;;;;;;8.23;7.53;;;;;20.20;99672.00;;;;2087266;28;20241;-49
2020/12/09 01:54:30;;;;;;;8.17;7.47;;;;;20.20;99671.00;;;;2087023;28;20210;-46
2020/12/09 01:55:31;;;;;;;8.27;7.60;;;;;20.20;99677.00;;;;2091081;28;20243;-46
2020/12/09 01:56:31;;;;;;;7.47;6.77;;;;;20.20;99678.00;;;;2091769;28;20266;-47
2020/12/09 01:57:31;;;;;;;8.70;7.90;;;;;20.20;99679.00;;;;2091504;28;20214;-49
2020/12/09 01:58:32;;;;;;;8.43;7.73;;;;;20.10;99672.00;;;;2088425;28;20220;-48
2020/12/09 01:59:33;;;;;;;8.03;7.43;;;;;20.20;99669.00;;;;2094813;28;20293;-48
2020/12/09 02:00:35;;;;;;;8.35;7.60;;;;;20.20;99671.00;;;;2095365;28;20217;-50
2020/12/09 02:01:36;;;;;;;8.57;7.88;;;;;20.10;99673.00;;;;2097178;28;20207;-52
2020/12/09 02:02:36;;;;;;;7.90;7.20;;;;;20.00;99671.00;;;;2097391;28;20217;-50
2020/12/09 02:03:36;;;;;;;8.20;7.50;;;;;20.00;99666.00;;;;2096204;28;20224;-48
2020/12/09 02:04:37;;;;;;;7.60;7.00;;;;;20.00;99667.00;;;;2087879;28;20218;-48
2020/12/09 02:05:37;;;;;;;7.67;6.97;;;;;20.00;99668.00;;;;2096288;28;20215;-48
2020/12/09 02:06:37;;;;;;;7.40;6.80;;;;;20.10;99670.00;;;;2089087;28;20210;-49
2020/12/09 02:07:38;;;;;;;7.97;7.20;;;;;20.20;99673.00;;;;2088018;28;20262;-49
2020/12/09 02:08:38;;;;;;;8.33;6.50;;;;;20.30;99675.00;;;;2088271;28;20218;-49
2020/12/09 02:09:38;;;;;;;7.60;7.00;;;;;20.20;99673.00;;;;2096851;28;20837;-49
2020/12/09 02:10:39;;;;;;;7.80;6.60;;;;;20.20;99670.00;;;;2097087;28;20679;-48
2020/12/09 02:11:39;;;;;;;7.03;6.53;;;;;20.20;99674.00;;;;2089056;28;20678;-48
2020/12/09 02:12:40;;;;;;;7.70;7.03;;;;;20.20;99677.00;;;;2088872;28;20317;-49
2020/12/09 02:13:46;;;;;;;8.73;6.80;;;;;20.20;99677.00;;;;2089115;28;20242;-48
2020/12/09 02:14:46;;;;;;;7.75;7.10;;;;;20.20;99678.00;;;;2096805;28;20220;-49
2020/12/09 02:15:46;;;;;;;7.80;7.00;;;;;20.20;99678.00;;;;2097098;28;20297;-49
2020/12/09 02:16:57;;;;;;;7.20;6.60;;;;;20.20;99674.00;;;;2096962;28;20207;-48
2020/12/09 02:17:58;;;;;;;7.40;6.80;;;;;20.20;99674.00;;;;2094301;28;20234;-49
2020/12/09 02:18:58;;;;;;;7.83;7.13;;;;;20.20;99674.00;;;;2087790;28;20267;-48
2020/12/09 02:19:58;;;;;;;7.70;6.50;;;;;20.20;99676.00;;;;2093040;28;20218;-49
2020/12/09 02:20:59;;;;;;;6.87;6.27;;;;;20.20;99681.00;;;;2092998;28;20218;-49
2020/12/09 02:22:12;;;;;;;7.33;6.63;;;;;20.20;99672.00;;;;2093034;28;20266;-48
2020/12/09 02:23:12;;;;;;;6.90;6.30;;;;;20.20;99679.00;;;;2088087;28;20210;-49
2020/12/09 02:24:12;;;;;;;7.57;6.60;;;;;20.20;99676.00;;;;2088684;28;20226;-49
2020/12/09 02:25:13;;;;;;;7.70;6.50;;;;;20.20;99675.00;;;;2087381;28;20215;-49
2020/12/09 02:26:13;;;;;;;7.63;6.93;;;;;20.20;99682.00;;;;2088025;28;20253;-49
2020/12/09 02:27:13;;;;;;;6.60;5.97;;;;;20.20;99679.00;;;;2088021;28;20673;-47
2020/12/09 02:28:14;;;;;;;7.23;6.70;;;;;20.20;99675.00;;;;2088264;28;20616;-49
2020/12/09 02:29:14;;;;;;;7.40;6.70;;;;;20.20;99673.00;;;;2088424;28;20211;-49
2020/12/09 02:30:14;;;;;;;7.40;6.77;;;;;20.20;99678.00;;;;2088443;28;20219;-49
2020/12/09 02:31:15;;;;;;;6.57;5.97;;;;;20.20;99673.00;;;;2092538;28;20611;-49
2020/12/09 02:32:15;;;;;;;7.07;6.47;;;;;20.20;99672.00;;;;2095865;28;20605;-49
2020/12/09 02:33:15;;;;;;;7.20;6.60;;;;;20.20;99676.00;;;;2097044;28;20206;-47
2020/12/09 02:34:16;;;;;;;8.20;7.40;;;;;20.20;99671.00;;;;2091734;28;20269;-48
2020/12/09 02:35:16;;;;;;;6.33;5.83;;;;;20.20;99675.00;;;;2093383;28;20200;-48
2020/12/09 02:36:16;;;;;;;7.17;6.47;;;;;20.20;99671.00;;;;2097272;28;20210;-48
2020/12/09 02:37:17;;;;;;;6.80;6.20;;;;;20.20;99672.00;;;;2096788;28;20202;-49
2020/12/09 02:38:17;;;;;;;7.47;6.87;;;;;20.20;99665.00;;;;2096972;28;20317;-50
2020/12/09 02:39:17;;;;;;;6.93;6.43;;;;;20.20;99668.00;;;;2087419;28;20199;-49
2020/12/09 02:40:18;;;;;;;7.20;6.70;;;;;20.20;99667.00;;;;2087826;28;20206;-49
2020/12/09 02:41:18;;;;;;;7.43;6.73;;;;;20.20;99673.00;;;;2090989;28;20225;-49
2020/12/09 02:42:18;;;;;;;6.20;5.70;;;;;20.20;99664.00;;;;2088617;28;20214;-49
2020/12/09 02:43:19;;;;;;;6.50;6.00;;;;;20.20;99672.00;;;;2093879;28;20208;-49
2020/12/09 02:44:19;;;;;;;6.87;6.27;;;;;20.20;99674.00;;;;2091720;28;20285;-49
2020/12/09 02:45:19;;;;;;;6.40;5.90;;;;;20.20;99670.00;;;;2093741;28;20214;-49
2020/12/09 02:46:20;;;;;;;7.20;6.60;;;;;20.20;99673.00;;;;2096862;28;20585;-49
2020/12/09 02:47:20;;;;;;;6.23;5.73;;;;;20.20;99668.00;;;;2096848;28;20213;-48
2020/12/09 02:48:21;;;;;;;6.77;6.17;;;;;20.20;99665.00;;;;2096880;28;20210;-47
2020/12/09 02:49:22;;;;;;;7.17;6.47;;;;;20.10;99667.00;;;;2094881;28;20683;-48
2020/12/09 02:50:22;;;;;;;7.32;6.63;;;;;20.20;99674.00;;;;2094945;28;20213;-47
2020/12/09 02:51:23;;;;;;;6.77;6.27;;;;;20.20;99668.00;;;;2092190;28;20210;-49
2020/12/09 02:52:24;;;;;;;6.40;5.90;;;;;20.20;99672.00;;;;2090392;28;20222;-49
2020/12/09 02:53:24;;;;;;;6.53;5.93;;;;;20.20;99675.00;;;;2088530;28;20223;-49
2020/12/09 02:54:24;;;;;;;6.73;6.23;;;;;20.10;99674.00;;;;2088545;28;20205;-46
2020/12/09 02:55:25;;;;;;;7.20;6.60;;;;;20.20;99668.00;;;;2094349;28;20230;-48
2020/12/09 02:56:25;;;;;;;6.57;6.07;;;;;20.20;99675.00;;;;2097043;28;20629;-49
2020/12/09 02:57:26;;;;;;;6.37;5.87;;;;;20.20;99673.00;;;;2096737;28;20207;-50
2020/12/09 02:58:26;;;;;;;6.47;5.87;;;;;20.20;99673.00;;;;2090361;28;20217;-49
2020/12/09 02:59:26;;;;;;;6.83;6.33;;;;;20.10;99673.00;;;;2088783;28;20243;-49
2020/12/09 03:00:26;;;;;;;6.90;6.40;;;;;20.10;99671.00;;;;2088586;28;20708;-48
2020/12/09 03:01:32;;;;;;;6.63;6.13;;;;;20.10;99679.00;;;;2087953;28;20948;-49
2020/12/09 03:02:32;;;;;;;6.13;5.72;;;;;20.10;99674.00;;;;2094594;28;20209;-48
2020/12/09 03:03:32;;;;;;;6.50;6.00;;;;;20.10;99672.00;;;;2095554;28;20213;-49
2020/12/09 03:04:32;;;;;;;6.80;6.10;;;;;20.10;99683.00;;;;2095323;28;20209;-49
2020/12/09 03:05:33;;;;;;;7.30;6.70;;;;;20.10;99672.00;;;;2096388;28;20234;-48
2020/12/09 03:06:33;;;;;;;6.57;5.97;;;;;20.10;99676.00;;;;2095914;28;20221;-48
2020/12/09 03:07:34;;;;;;;6.50;6.00;;;;;20.10;99679.00;;;;2096557;28;20560;-49
2020/12/09 03:08:34;;;;;;;6.50;6.00;;;;;20.10;99680.00;;;;2088948;28;20208;-49
2020/12/09 03:09:34;;;;;;;7.10;6.50;;;;;20.10;99675.00;;;;2095378;28;20291;-49
2020/12/09 03:10:35;;;;;;;6.40;5.90;;;;;20.10;99675.00;;;;2096167;28;20214;-49
2020/12/09 03:11:35;;;;;;;6.60;6.10;;;;;20.10;99672.00;;;;2089020;28;20210;-47
2020/12/09 03:12:35;;;;;;;7.00;6.50;;;;;20.10;99679.00;;;;2088321;28;20231;-49
2020/12/09 03:13:36;;;;;;;7.90;7.20;;;;;20.10;99670.00;;;;2088707;28;20298;-49
2020/12/09 03:14:36;;;;;;;6.80;6.30;;;;;20.10;99681.00;;;;2095709;28;20213;-49
2020/12/09 03:15:36;;;;;;;7.07;6.47;;;;;20.10;99687.00;;;;2096864;28;20226;-49
2020/12/09 03:16:37;;;;;;;7.80;7.10;;;;;20.10;99677.00;;;;2096709;28;20214;-49
2020/12/09 03:17:37;;;;;;;6.77;6.27;;;;;20.10;99664.00;;;;2088723;28;20344;-49
2020/12/09 03:18:37;;;;;;;7.97;7.27;;;;;20.10;99683.00;;;;2089035;28;20584;-47
2020/12/09 03:19:38;;;;;;;7.97;7.37;;;;;20.10;99677.00;;;;2096686;28;20620;-48
2020/12/09 03:20:38;;;;;;;7.10;6.50;;;;;20.10;99683.00;;;;2085519;28;20241;-48
2020/12/09 03:21:41;;;;;;;6.90;6.40;;;;;20.10;99678.00;;;;2086686;28;20314;-51
2020/12/09 03:22:41;;;;;;;7.10;6.60;;;;;20.10;99686.00;;;;2088301;28;20218;-48
2020/12/09 03:23:41;;;;;;;7.70;7.00;;;;;20.10;99679.00;;;;2096341;28;20232;-46
2020/12/09 03:24:42;;;;;;;7.43;6.83;;;;;20.10;99688.00;;;;2087210;28;20647;-55
2020/12/09 03:25:42;;;;;;;7.00;6.40;;;;;20.10;99692.00;;;;2088609;28;20297;-52
2020/12/09 03:26:42;;;;;;;7.67;6.97;;;;;20.10;99697.00;;;;2088331;28;20218;-50
2020/12/09 03:27:43;;;;;;;7.27;6.63;;;;;20.10;99691.00;;;;2088169;28;20226;-49
2020/12/09 03:28:43;;;;;;;7.67;7.03;;;;;20.10;99690.00;;;;2088257;28;20220;-50
2020/12/09 03:29:43;;;;;;;7.13;6.50;;;;;20.10;99690.00;;;;2088399;28;20218;-50
2020/12/09 03:30:44;;;;;;;8.60;7.83;;;;;20.00;99687.00;;;;2087869;28;20264;-48
2020/12/09 03:31:44;;;;;;;7.27;6.67;;;;;20.10;99689.00;;;;2087381;28;20272;-49
2020/12/09 03:32:45;;;;;;;6.90;6.33;;;;;20.10;99685.00;;;;2087301;28;20246;-49
2020/12/09 03:33:45;;;;;;;7.70;7.10;;;;;20.10;99688.00;;;;2095085;28;20315;-49
2020/12/09 03:34:45;;;;;;;7.97;7.30;;;;;20.10;99692.00;;;;2087852;28;20293;-49
2020/12/09 03:35:46;;;;;;;7.93;7.23;;;;;20.10;99686.00;;;;2088085;28;20220;-50
2020/12/09 03:36:46;;;;;;;7.40;6.80;;;;;20.00;99691.00;;;;2088330;28;20222;-48
2020/12/09 03:37:46;;;;;;;7.63;7.00;;;;;20.00;99689.00;;;;2088819;28;20215;-49
2020/12/09 03:38:47;;;;;;;7.93;7.23;;;;;20.00;99685.00;;;;2096542;28;20221;-49
2020/12/09 03:39:47;;;;;;;8.00;7.30;;;;;20.00;99686.00;;;;2096391;28;20222;-49
2020/12/09 03:40:48;;;;;;;7.40;6.80;;;;;20.10;99687.00;;;;2096442;28;20417;-47
2020/12/09 03:41:48;;;;;;;7.20;6.60;;;;;20.00;99687.00;;;;2095400;28;20210;-49
2020/12/09 03:42:49;;;;;;;7.83;7.13;;;;;20.00;99698.00;;;;2088189;28;20718;-50
2020/12/09 03:43:49;;;;;;;7.50;6.90;;;;;20.00;99694.00;;;;2089275;28;20685;-49
2020/12/09 03:44:49;;;;;;;7.20;6.63;;;;;20.00;99694.00;;;;2095691;28;20929;-50
2020/12/09 03:45:50;;;;;;;7.93;7.33;;;;;20.10;99700.00;;;;2096627;28;20222;-49
2020/12/09 03:46:50;;;;;;;7.40;6.80;;;;;20.10;99695.00;;;;2096574;28;20316;-47
2020/12/09 03:47:50;;;;;;;8.70;8.00;;;;;20.10;99700.00;;;;2096283;28;20217;-48
2020/12/09 03:48:51;;;;;;;7.73;7.13;;;;;20.10;99697.00;;;;2095890;28;20229;-48
2020/12/09 03:49:51;;;;;;;9.17;8.37;;;;;20.00;99703.00;;;;2094385;28;20283;-47
2020/12/09 03:50:51;;;;;;;8.33;7.53;;;;;20.00;99695.00;;;;2098534;28;20220;-48
2020/12/09 03:51:52;;;;;;;8.20;7.50;;;;;20.00;99699.00;;;;2094447;28;20854;-48
2020/12/09 03:52:52;;;;;;;9.17;8.37;;;;;20.00;99692.00;;;;2089692;28;20587;-48
2020/12/09 03:53:52;;;;;;;8.37;7.70;;;;;20.00;99696.00;;;;2096141;28;20210;-48
2020/12/09 03:54:53;;;;;;;9.60;8.77;;;;;20.00;99694.00;;;;2095597;28;20221;-49
2020/12/09 03:55:53;;;;;;;8.83;8.13;;;;;20.00;99707.00;;;;2096001;28;20209;-49
2020/12/09 03:56:53;;;;;;;9.70;8.87;;;;;20.00;99703.00;;;;2094155;28;20699;-50
2020/12/09 03:57:58;;;;;;;8.80;8.10;;;;;20.00;99702.00;;;;2089701;28;20889;-49
2020/12/09 03:58:59;;;;;;;9.30;8.50;;;;;20.00;99706.00;;;;2093847;28;20218;-47
2020/12/09 03:59:59;;;;;;;9.43;8.53;;;;;20.00;99703.00;;;;2088058;28;20221;-48
2020/12/09 04:00:59;;;;;;;8.80;8.10;;;;;20.00;99698.00;;;;2088237;28;20220;-49
2020/12/09 04:02:00;;;;;;;8.40;7.70;;;;;20.10;99706.00;;;;2088311;28;20242;-49
2020/12/09 04:03:00;;;;;;;9.63;8.47;;;;;20.10;99698.00;;;;2087957;28;20217;-49
2020/12/09 04:04:00;;;;;;;10.30;9.30;;;;;20.10;99702.00;;;;2090578;28;20225;-47
2020/12/09 04:05:01;;;;;;;10.53;9.43;;;;;20.00;99703.00;;;;2095759;28;20248;-47
2020/12/09 04:06:01;;;;;;;8.50;7.80;;;;;20.00;99707.00;;;;2096127;28;20313;-48
2020/12/09 04:07:01;;;;;;;10.23;9.00;;;;;20.00;99704.00;;;;2095971;28;20230;-49
2020/12/09 04:08:02;;;;;;;9.60;8.70;;;;;20.00;99704.00;;;;2096047;28;20227;-49
2020/12/09 04:09:03;;;;;;;10.13;9.23;;;;;20.00;99697.00;;;;2093034;28;20303;-49
2020/12/09 04:10:04;;;;;;;9.60;8.70;;;;;20.00;99695.00;;;;2087999;28;20222;-49
2020/12/09 04:11:04;;;;;;;10.17;9.37;;;;;20.00;99705.00;;;;2091158;28;20233;-47
2020/12/09 04:12:05;;;;;;;10.20;9.30;;;;;19.90;99699.00;;;;2096030;28;20467;-49
2020/12/09 04:13:05;;;;;;;10.17;8.70;;;;;20.00;99705.00;;;;2096383;28;20679;-48
2020/12/09 04:14:05;;;;;;;9.67;8.87;;;;;20.00;99709.00;;;;2096851;28;20632;-47
2020/12/09 04:15:06;;;;;;;10.90;9.90;;;;;19.90;99705.00;;;;2095418;28;20215;-49
2020/12/09 04:16:06;;;;;;;10.10;9.10;;;;;19.90;99709.00;;;;2095944;28;20302;-49
2020/12/09 04:17:06;;;;;;;10.30;9.33;;;;;19.90;99709.00;;;;2092368;28;26080;-49
2020/12/09 04:18:07;;;;;;;10.27;9.27;;;;;19.90;99707.00;;;;2091190;28;20226;-49
2020/12/09 04:19:07;;;;;;;10.40;9.50;;;;;19.90;99707.00;;;;2093537;28;20226;-47
2020/12/09 04:20:08;;;;;;;10.53;9.57;;;;;19.90;99714.00;;;;2100294;28;20302;-47
2020/12/09 04:21:08;;;;;;;9.83;8.93;;;;;19.90;99709.00;;;;2092128;28;20221;-47
2020/12/09 04:22:08;;;;;;;10.30;9.40;;;;;19.90;99708.00;;;;2091437;28;20229;-48
2020/12/09 04:23:08;;;;;;;9.80;8.90;;;;;19.90;99710.00;;;;2091147;28;20215;-49
2020/12/09 04:24:09;;;;;;;10.10;9.13;;;;;19.90;99712.00;;;;2095099;28;20585;-49
2020/12/09 04:25:09;;;;;;;10.43;9.53;;;;;19.80;99713.00;;;;2090478;28;20693;-49
2020/12/09 04:26:09;;;;;;;10.00;9.20;;;;;19.80;99713.00;;;;2087417;28;20243;-49
2020/12/09 04:27:10;;;;;;;11.97;10.77;;;;;19.80;99714.00;;;;2080396;28;20210;-47
2020/12/09 04:28:10;;;;;;;10.00;9.10;;;;;19.80;99718.00;;;;2092033;28;20240;-47
2020/12/09 04:29:11;;;;;;;10.70;9.70;;;;;19.80;99718.00;;;;2095850;28;20773;-47
2020/12/09 04:30:11;;;;;;;10.33;9.43;;;;;19.80;99716.00;;;;2091623;28;20215;-49
2020/12/09 04:31:11;;;;;;;10.17;8.80;;;;;19.80;99720.00;;;;2091553;28;20215;-49
2020/12/09 04:32:12;;;;;;;10.60;9.70;;;;;19.80;99716.00;;;;2095182;28;20785;-48
2020/12/09 04:33:12;;;;;;;10.17;9.30;;;;;19.80;99715.00;;;;2095647;28;20217;-47
2020/12/09 04:34:12;;;;;;;11.03;10.03;;;;;19.80;99717.00;;;;2094885;28;20222;-49
2020/12/09 04:35:13;;;;;;;10.43;9.43;;;;;19.80;99721.00;;;;2087632;28;20230;-49
2020/12/09 04:36:13;;;;;;;10.77;9.77;;;;;19.80;99721.00;;;;2086252;28;20211;-49
2020/12/09 04:37:13;;;;;;;11.97;10.87;;;;;19.80;99723.00;;;;2095693;28;20219;-49
2020/12/09 04:38:14;;;;;;;10.00;9.13;;;;;19.80;99724.00;;;;2089543;28;20301;-49
2020/12/09 04:39:14;;;;;;;10.40;9.40;;;;;19.80;99731.00;;;;2090350;28;20206;-48
2020/12/09 04:40:14;;;;;;;10.10;9.20;;;;;19.80;99723.00;;;;2095824;28;20215;-48
2020/12/09 04:41:15;;;;;;;10.73;9.73;;;;;19.80;99727.00;;;;2091061;28;20267;-49
2020/12/09 04:42:17;;;;;;;10.97;9.87;;;;;19.80;99708.00;;;;2092319;28;20221;-49
2020/12/09 04:43:18;;;;;;;10.30;9.32;;;;;19.80;99727.00;;;;2095732;28;20213;-49
2020/12/09 04:44:18;;;;;;;9.70;8.83;;;;;19.80;99724.00;;;;2093507;28;20282;-49
2020/12/09 04:45:18;;;;;;;10.30;9.40;;;;;19.80;99725.00;;;;2098290;28;20218;-48
2020/12/09 04:46:19;;;;;;;10.60;9.70;;;;;19.80;99718.00;;;;2091898;28;20216;-49
2020/12/09 04:47:28;;;;;;;10.47;9.57;;;;;19.70;99716.00;;;;2090126;28;20218;-50
2020/12/09 04:48:29;;;;;;;10.07;9.18;;;;;19.80;99726.00;;;;2094068;28;20569;-48
2020/12/09 04:49:40;;;;;;;10.27;9.37;;;;;19.70;99722.00;;;;2095349;28;20222;-49
2020/12/09 04:50:57;;;;;;;9.63;8.82;;;;;19.70;99719.00;;;;2095492;28;20213;-49
2020/12/09 04:52:39;;;;;;;11.50;10.43;;;;;19.80;99729.00;;;;2080659;28;20221;-49
2020/12/09 04:53:41;;;;;;;10.68;9.68;;;;;19.70;99720.00;;;;2078433;28;20210;-50
2020/12/09 04:54:43;;;;;;;11.15;10.10;;;;;19.70;99717.00;;;;2085461;28;20283;-49
2020/12/09 04:55:54;;;;;;;10.75;9.85;;;;;19.70;99724.00;;;;2087371;28;20217;-49
2020/12/09 04:56:55;;;;;;;9.82;8.93;;;;;19.70;99719.00;;;;2086917;28;20215;-49
2020/12/09 04:58:09;;;;;;;10.47;9.57;;;;;19.70;99723.00;;;;2087407;28;20290;-48
2020/12/09 04:59:13;;;;;;;10.50;9.50;;;;;19.70;99720.00;;;;2086619;28;20882;-48
2020/12/09 05:00:14;;;;;;;10.75;9.85;;;;;19.70;99718.00;;;;2082010;28;20273;-49
2020/12/09 05:01:15;;;;;;;11.20;10.20;;;;;19.70;99728.00;;;;2083813;28;20306;-49
2020/12/09 05:02:15;;;;;;;10.43;9.53;;;;;19.70;99719.00;;;;2082518;28;20229;-48